createdAt,value
2023-01-20T00:02:19.551Z,99558.50
2023-01-20T00:07:20.851Z,99565.13
2023-01-20T00:12:22.307Z,99539.31
2023-01-20T00:17:23.638Z,99592.72
2023-01-20T00:22:24.998Z,99603.84
2023-01-20T00:27:26.337Z,99594.91
2023-01-20T00:32:27.717Z,99608.41
2023-01-20T00:37:29.182Z,99595.69
2023-01-20T00:42:30.584Z,99608.16
2023-01-20T00:47:32.055Z,99615.25
2023-01-20T00:52:33.500Z,99633.88
2023-01-20T00:57:34.860Z,99615.41
2023-01-20T01:02:40.025Z,99638.66
2023-01-20T01:07:42.256Z,99654.88
2023-01-20T01:12:43.945Z,99610.69
2023-01-20T01:17:45.545Z,99651.00
2023-01-20T01:22:46.990Z,99656.75
2023-01-20T01:27:48.403Z,99650.31
2023-01-20T01:32:49.902Z,99667.22
2023-01-20T01:37:51.314Z,99658.78
2023-01-20T01:42:52.593Z,99659.59
2023-01-20T01:48:03.167Z,99680.78
2023-01-20T01:53:05.762Z,99669.06
2023-01-20T01:58:11.281Z,99659.22
2023-01-20T02:03:13.290Z,99667.34
2023-01-20T02:08:14.814Z,99678.41
2023-01-20T02:13:16.594Z,99686.88
2023-01-20T02:18:38.970Z,99691.19
2023-01-20T02:24:12.303Z,99709.41
2023-01-20T02:30:05.719Z,99722.25
2023-01-20T02:35:40.299Z,99716.31
2023-01-20T02:41:03.466Z,99731.72
2023-01-20T02:46:16.438Z,99726.03
2023-01-20T02:51:24.566Z,99731.13
2023-01-20T02:56:29.634Z,99749.81
2023-01-20T03:01:36.981Z,99741.22
2023-01-20T03:06:46.512Z,99746.63
2023-01-20T03:12:17.695Z,99758.13
2023-01-20T03:17:20.424Z,99749.97
2023-01-20T03:22:22.683Z,99780.84
2023-01-20T03:27:24.592Z,99767.44
2023-01-20T03:32:27.083Z,99786.16
2023-01-20T03:37:28.535Z,99793.31
2023-01-20T03:42:52.609Z,99779.84
2023-01-20T03:48:12.739Z,99790.97
2023-01-20T03:53:45.870Z,99795.13
2023-01-20T03:58:51.881Z,99785.47
2023-01-20T04:03:54.559Z,99808.63
2023-01-20T04:09:04.321Z,99818.13
2023-01-20T04:14:09.457Z,99809.44
2023-01-20T04:19:10.818Z,99808.47
2023-01-20T04:24:15.157Z,99825.53
2023-01-20T04:29:16.633Z,99809.84
2023-01-20T04:34:18.080Z,99808.78
2023-01-20T04:39:19.413Z,99831.63
2023-01-20T04:44:20.799Z,99830.78
2023-01-20T04:49:22.258Z,99810.66
2023-01-20T04:54:23.610Z,99822.78
2023-01-20T04:59:24.951Z,99834.19
2023-01-20T05:04:26.347Z,99845.44
2023-01-20T05:09:27.736Z,99845.38
2023-01-20T05:14:29.527Z,99852.75
2023-01-20T05:19:30.851Z,99850.06
2023-01-20T05:24:32.199Z,99871.75
2023-01-20T05:29:33.563Z,99872.84
2023-01-20T05:34:34.893Z,99871.47
2023-01-20T05:39:36.179Z,99867.00
2023-01-20T05:44:37.577Z,99891.53
2023-01-20T05:49:38.951Z,99889.59
2023-01-20T05:54:40.403Z,99902.94
2023-01-20T05:59:42.391Z,99885.19
2023-01-20T06:04:43.788Z,99909.34
2023-01-20T06:09:45.203Z,99893.66
2023-01-20T06:14:46.984Z,99928.72
2023-01-20T06:19:49.228Z,99920.84
2023-01-20T06:24:50.746Z,99895.22
2023-01-20T06:29:52.169Z,99934.13
2023-01-20T06:34:53.664Z,99958.84
2023-01-20T06:39:54.947Z,99956.50
2023-01-20T06:44:56.298Z,99953.25
2023-01-20T06:49:57.692Z,99954.22
2023-01-20T06:54:59.094Z,99979.34
2023-01-20T07:00:00.516Z,99972.59
2023-01-20T07:05:02.477Z,99964.47
2023-01-20T07:10:04.228Z,99971.13
2023-01-20T07:15:06.070Z,99979.63
2023-01-20T07:20:07.956Z,99991.69
2023-01-20T07:25:09.858Z,100008.91
2023-01-20T07:30:11.364Z,100011.25
2023-01-20T07:35:13.216Z,99959.66
2023-01-20T07:40:14.802Z,100014.25
2023-01-20T07:45:17.034Z,100007.97
2023-01-20T07:50:18.699Z,100023.41
2023-01-20T07:55:20.178Z,100028.28
2023-01-20T08:00:22.209Z,100047.13
2023-01-20T08:05:23.617Z,100045.16
2023-01-20T08:10:25.119Z,100032.03
2023-01-20T08:15:26.547Z,100057.53
2023-01-20T08:20:28.014Z,100042.22
2023-01-20T08:25:29.398Z,100044.00
2023-01-20T08:30:30.900Z,100062.00
2023-01-20T08:35:35.392Z,100068.03
2023-01-20T08:40:36.814Z,100060.16
2023-01-20T08:45:38.433Z,100081.22
2023-01-20T08:50:39.940Z,100088.38
2023-01-20T08:55:41.300Z,100068.78
2023-01-20T09:00:42.613Z,100093.06
2023-01-20T09:05:44.170Z,100101.19
2023-01-20T09:10:46.302Z,100099.16
2023-01-20T09:15:52.319Z,100084.47
2023-01-20T09:20:53.597Z,100089.56
2023-01-20T09:25:55.322Z,100087.72
2023-01-20T09:31:05.327Z,100114.00
2023-01-20T09:36:09.513Z,100119.25
2023-01-20T09:41:44.015Z,100123.09
2023-01-20T09:47:20.199Z,100124.28
2023-01-20T09:52:46.929Z,100135.28
2023-01-20T09:57:59.215Z,100141.91
2023-01-20T10:03:09.844Z,100134.34
2023-01-20T10:08:21.589Z,100133.81
2023-01-20T10:13:47.266Z,100122.38
2023-01-20T10:19:04.888Z,100133.84
2023-01-20T10:24:18.227Z,100144.13
2023-01-20T10:29:41.207Z,100133.84
2023-01-20T10:34:46.953Z,100156.50
2023-01-20T10:39:54.562Z,100136.19
2023-01-20T10:44:56.157Z,100133.25
2023-01-20T10:50:22.207Z,100144.88
2023-01-20T10:55:34.953Z,100149.88
2023-01-20T11:00:37.161Z,100134.28
2023-01-20T11:05:38.715Z,100135.13
2023-01-20T11:10:41.729Z,100141.34
2023-01-20T11:15:48.265Z,100142.09
2023-01-20T11:20:53.927Z,100146.88
2023-01-20T11:25:57.987Z,100147.25
2023-01-20T11:30:59.507Z,100146.22
2023-01-20T11:36:04.579Z,100150.97
2023-01-20T11:41:17.252Z,100155.50
2023-01-20T11:46:25.626Z,100146.28
2023-01-20T11:51:27.168Z,100113.00
2023-01-20T11:56:41.730Z,100162.47
2023-01-20T12:02:00.658Z,100159.44
2023-01-20T12:07:26.608Z,100159.69
2023-01-20T12:12:38.461Z,100156.34
2023-01-20T12:17:49.128Z,100169.88
2023-01-20T12:23:11.854Z,100167.06
2023-01-20T12:28:17.342Z,100152.41
2023-01-20T12:33:38.990Z,100167.75
2023-01-20T12:39:00.918Z,100155.72
2023-01-20T12:44:26.592Z,100169.03
2023-01-20T12:49:27.877Z,100163.28
2023-01-20T12:54:50.878Z,100153.22
2023-01-20T13:00:12.488Z,100169.84
2023-01-20T13:05:42.377Z,100159.34
2023-01-20T13:10:51.211Z,100179.28
2023-01-20T13:16:02.779Z,100183.13
2023-01-20T13:21:04.239Z,100174.00
2023-01-20T13:26:06.283Z,100173.69
2023-01-20T13:31:37.337Z,100188.06
2023-01-20T13:36:38.894Z,100179.13
2023-01-20T13:41:50.564Z,100185.38
2023-01-20T13:46:52.067Z,100171.56
2023-01-20T13:51:53.494Z,100153.72
2023-01-20T13:57:27.928Z,100182.59
2023-01-20T14:02:35.405Z,100186.66
2023-01-20T14:07:36.739Z,100190.84
2023-01-20T14:12:41.462Z,100188.66
2023-01-20T14:17:42.840Z,100170.88
2023-01-20T14:22:44.340Z,100207.28
2023-01-20T14:27:45.679Z,100186.09
2023-01-20T14:32:47.123Z,100194.16
2023-01-20T14:37:51.565Z,100198.97
2023-01-20T14:43:14.473Z,100215.31
2023-01-20T14:48:32.422Z,100212.66
2023-01-20T14:53:35.386Z,100230.00
2023-01-20T14:58:44.571Z,100231.38
2023-01-20T15:03:46.065Z,100220.38
2023-01-20T15:09:04.920Z,100234.78
2023-01-20T15:14:08.732Z,100242.09
2023-01-20T15:19:20.290Z,100244.50
2023-01-20T15:24:32.209Z,100245.41
2023-01-20T15:29:35.701Z,100237.31
2023-01-20T15:34:37.276Z,100230.75
2023-01-20T15:39:38.676Z,100250.56
2023-01-20T15:44:40.067Z,100255.19
2023-01-20T15:49:41.361Z,100255.84
2023-01-20T15:54:43.135Z,100263.03
2023-01-20T15:59:45.966Z,100266.28
2023-01-20T16:04:47.711Z,100264.88
2023-01-20T16:09:49.289Z,100275.88
2023-01-20T16:14:50.606Z,100273.72
2023-01-20T16:19:51.967Z,100270.63
2023-01-20T16:24:53.428Z,100282.84
2023-01-20T16:29:55.913Z,100305.16
2023-01-20T16:34:57.302Z,100293.28
2023-01-20T16:39:59.303Z,100305.16
2023-01-20T16:45:01.150Z,100307.84
2023-01-20T16:50:02.566Z,100299.56
2023-01-20T16:55:04.158Z,100319.22
2023-01-20T17:00:07.139Z,100315.69
2023-01-20T17:05:09.411Z,100316.66
2023-01-20T17:10:11.826Z,100324.34
2023-01-20T17:15:13.264Z,100329.75
2023-01-20T17:20:15.062Z,100342.47
2023-01-20T17:25:17.872Z,100316.19
2023-01-20T17:30:19.618Z,100347.56
2023-01-20T17:35:21.067Z,100344.28
2023-01-20T17:40:22.510Z,100356.06
2023-01-20T17:45:28.227Z,100339.03
2023-01-20T17:50:29.587Z,100357.94
2023-01-20T17:55:30.926Z,100361.19
2023-01-20T18:00:32.304Z,100359.63
2023-01-20T18:05:35.770Z,100373.56
2023-01-20T18:10:37.138Z,100373.00
2023-01-20T18:15:41.776Z,100372.31
2023-01-20T18:20:44.487Z,100389.97
2023-01-20T18:25:45.804Z,100406.53
2023-01-20T18:30:47.235Z,100388.03
2023-01-20T18:35:48.710Z,100410.13
2023-01-20T18:40:50.017Z,100414.31
2023-01-20T18:45:54.889Z,100403.34
2023-01-20T18:51:00.802Z,100404.19
2023-01-20T18:56:04.890Z,100418.06
2023-01-20T19:01:12.537Z,100407.09
2023-01-20T19:06:23.811Z,100431.00
2023-01-20T19:11:28.961Z,100437.19
2023-01-20T19:16:33.398Z,100415.06
2023-01-20T19:21:36.755Z,100420.97
2023-01-20T19:26:39.580Z,100419.41
2023-01-20T19:31:42.438Z,100446.25
2023-01-20T19:36:43.958Z,100442.84
2023-01-20T19:41:45.419Z,100463.63
2023-01-20T19:46:47.238Z,100452.53
2023-01-20T19:51:48.544Z,100460.63
2023-01-20T19:56:50.104Z,100469.28
2023-01-20T20:01:51.443Z,100462.03
2023-01-20T20:06:52.853Z,100476.53
2023-01-20T20:11:54.969Z,100477.53
2023-01-20T20:16:56.625Z,100483.34
2023-01-20T20:21:58.660Z,100476.69
2023-01-20T20:27:00.211Z,100496.22
2023-01-20T20:32:01.619Z,100504.38
2023-01-20T20:37:03.480Z,100503.69
2023-01-20T20:42:04.897Z,100497.44
2023-01-20T20:47:06.344Z,100504.31
2023-01-20T20:52:08.612Z,100519.31
2023-01-20T20:57:09.957Z,100523.59
2023-01-20T21:02:13.893Z,100535.94
2023-01-20T21:07:15.250Z,100534.25
2023-01-20T21:12:16.890Z,100534.25
2023-01-20T21:17:18.230Z,100543.19
2023-01-20T21:22:19.930Z,100537.31
2023-01-20T21:27:21.892Z,100540.91
2023-01-20T21:32:23.350Z,100530.78
2023-01-20T21:37:24.883Z,100554.75
2023-01-20T21:42:26.276Z,100541.75
2023-01-20T21:47:27.646Z,100553.69
2023-01-20T21:52:41.265Z,100542.28
2023-01-20T21:57:43.020Z,100548.03
2023-01-20T22:02:44.730Z,100561.94
2023-01-20T22:07:47.945Z,100576.59
2023-01-20T22:12:49.354Z,100598.41
2023-01-20T22:17:50.670Z,100597.34
2023-01-20T22:22:52.075Z,100579.44
2023-01-20T22:27:53.419Z,100615.75
2023-01-20T22:32:54.794Z,100599.50
2023-01-20T22:37:56.221Z,100616.75
2023-01-20T22:42:57.554Z,100621.34
2023-01-20T22:47:59.229Z,100630.34
2023-01-20T22:53:00.561Z,100646.75
2023-01-20T22:58:01.861Z,100639.00
2023-01-20T23:03:03.239Z,100658.88
2023-01-20T23:08:06.192Z,100658.88
2023-01-20T23:13:07.727Z,100652.03
2023-01-20T23:18:09.833Z,100667.53
2023-01-20T23:23:11.193Z,100674.78
2023-01-20T23:28:13.389Z,100681.75
2023-01-20T23:33:14.871Z,100680.28
2023-01-20T23:38:16.177Z,100683.69
2023-01-20T23:43:17.499Z,100687.91
2023-01-20T23:48:18.907Z,100695.88
2023-01-20T23:53:20.745Z,100713.19
2023-01-20T23:58:22.956Z,100715.75
